sensor_id;sensor_type;location;lat;lon;timestamp;temperature;humidity
9537;DHT22;4807;48.024;11.726;2023-07-20T00:00:34;17.10;99.90
9537;DHT22;4807;48.024;11.726;2023-07-20T00:03:43;17.00;99.90
9537;DHT22;4807;48.024;11.726;2023-07-20T00:06:53;17.10;99.90
9537;DHT22;4807;48.024;11.726;2023-07-20T00:10:01;17.20;99.90
9537;DHT22;4807;48.024;11.726;2023-07-20T00:13:10;17.20;99.90
9537;DHT22;4807;48.024;11.726;2023-07-20T00:16:19;17.20;99.90
9537;DHT22;4807;48.024;11.726;2023-07-20T00:19:28;17.10;99.90
9537;DHT22;4807;48.024;11.726;2023-07-20T00:22:40;17.00;99.90
9537;DHT22;4807;48.024;11.726;2023-07-20T00:25:48;17.10;99.90
9537;DHT22;4807;48.024;11.726;2023-07-20T00:28:56;16.90;99.90
9537;DHT22;4807;48.024;11.726;2023-07-20T00:32:05;17.00;99.90
9537;DHT22;4807;48.024;11.726;2023-07-20T00:35:14;16.90;99.90
9537;DHT22;4807;48.024;11.726;2023-07-20T00:38:24;16.80;99.90
9537;DHT22;4807;48.024;11.726;2023-07-20T00:41:32;16.80;99.90
9537;DHT22;4807;48.024;11.726;2023-07-20T00:44:42;16.90;99.90
9537;DHT22;4807;48.024;11.726;2023-07-20T00:47:50;16.90;99.90
9537;DHT22;4807;48.024;11.726;2023-07-20T00:51:00;17.00;99.90
9537;DHT22;4807;48.024;11.726;2023-07-20T00:54:11;16.90;99.90
9537;DHT22;4807;48.024;11.726;2023-07-20T00:57:19;16.90;99.90
9537;DHT22;4807;48.024;11.726;2023-07-20T01:00:28;17.00;99.90
9537;DHT22;4807;48.024;11.726;2023-07-20T01:03:37;17.00;99.90
9537;DHT22;4807;48.024;11.726;2023-07-20T01:06:48;16.90;99.90
9537;DHT22;4807;48.024;11.726;2023-07-20T01:10:12;17.00;99.90
9537;DHT22;4807;48.024;11.726;2023-07-20T01:13:26;17.10;99.90
9537;DHT22;4807;48.024;11.726;2023-07-20T01:16:36;17.20;99.90
9537;DHT22;4807;48.024;11.726;2023-07-20T01:19:44;17.10;99.90
9537;DHT22;4807;48.024;11.726;2023-07-20T01:23:17;17.10;99.90
9537;DHT22;4807;48.024;11.726;2023-07-20T01:27:09;17.10;99.90
9537;DHT22;4807;48.024;11.726;2023-07-20T01:30:55;17.10;99.90
9537;DHT22;4807;48.024;11.726;2023-07-20T01:34:10;17.10;99.90
9537;DHT22;4807;48.024;11.726;2023-07-20T01:37:21;17.10;99.90
9537;DHT22;4807;48.024;11.726;2023-07-20T01:40:35;17.10;99.90
9537;DHT22;4807;48.024;11.726;2023-07-20T01:43:44;17.10;99.90
9537;DHT22;4807;48.024;11.726;2023-07-20T01:46:52;17.10;99.90
9537;DHT22;4807;48.024;11.726;2023-07-20T01:50:02;17.10;99.90
9537;DHT22;4807;48.024;11.726;2023-07-20T01:53:12;17.10;99.90
9537;DHT22;4807;48.024;11.726;2023-07-20T01:56:20;17.20;99.90
9537;DHT22;4807;48.024;11.726;2023-07-20T01:59:29;17.20;99.90
9537;DHT22;4807;48.024;11.726;2023-07-20T02:02:38;17.30;99.90
9537;DHT22;4807;48.024;11.726;2023-07-20T02:05:48;17.20;99.90
9537;DHT22;4807;48.024;11.726;2023-07-20T02:08:57;17.20;99.90
9537;DHT22;4807;48.024;11.726;2023-07-20T02:12:06;17.20;99.90
9537;DHT22;4807;48.024;11.726;2023-07-20T02:15:15;17.20;99.90
9537;DHT22;4807;48.024;11.726;2023-07-20T02:18:25;17.20;99.90
9537;DHT22;4807;48.024;11.726;2023-07-20T02:21:35;17.10;99.90
9537;DHT22;4807;48.024;11.726;2023-07-20T02:24:43;17.20;99.90
9537;DHT22;4807;48.024;11.726;2023-07-20T02:27:52;17.20;99.90
9537;DHT22;4807;48.024;11.726;2023-07-20T02:31:01;17.20;99.90
9537;DHT22;4807;48.024;11.726;2023-07-20T02:34:09;17.20;99.90
9537;DHT22;4807;48.024;11.726;2023-07-20T02:37:19;17.20;99.90
9537;DHT22;4807;48.024;11.726;2023-07-20T02:40:27;17.30;99.90
9537;DHT22;4807;48.024;11.726;2023-07-20T02:43:35;17.20;99.90
9537;DHT22;4807;48.024;11.726;2023-07-20T02:46:46;17.30;99.90
9537;DHT22;4807;48.024;11.726;2023-07-20T02:49:56;17.30;99.90
9537;DHT22;4807;48.024;11.726;2023-07-20T02:53:07;17.30;99.90
9537;DHT22;4807;48.024;11.726;2023-07-20T02:56:15;17.30;99.90
9537;DHT22;4807;48.024;11.726;2023-07-20T02:59:24;17.30;99.90
9537;DHT22;4807;48.024;11.726;2023-07-20T03:02:33;17.30;99.90
9537;DHT22;4807;48.024;11.726;2023-07-20T03:05:42;17.40;99.90
9537;DHT22;4807;48.024;11.726;2023-07-20T03:08:51;17.50;99.90
9537;DHT22;4807;48.024;11.726;2023-07-20T03:12:00;17.50;99.90
9537;DHT22;4807;48.024;11.726;2023-07-20T03:15:09;17.50;99.90
9537;DHT22;4807;48.024;11.726;2023-07-20T03:18:18;17.50;99.90
9537;DHT22;4807;48.024;11.726;2023-07-20T03:21:26;17.50;99.90
9537;DHT22;4807;48.024;11.726;2023-07-20T03:24:37;17.30;99.90
9537;DHT22;4807;48.024;11.726;2023-07-20T03:27:45;17.10;99.90
9537;DHT22;4807;48.024;11.726;2023-07-20T03:30:54;16.90;99.90
9537;DHT22;4807;48.024;11.726;2023-07-20T03:34:03;16.70;99.90
9537;DHT22;4807;48.024;11.726;2023-07-20T03:37:13;16.60;99.90
9537;DHT22;4807;48.024;11.726;2023-07-20T03:40:23;16.50;99.90
9537;DHT22;4807;48.024;11.726;2023-07-20T03:43:32;16.40;99.90
9537;DHT22;4807;48.024;11.726;2023-07-20T03:46:40;16.30;99.90
9537;DHT22;4807;48.024;11.726;2023-07-20T03:49:51;16.20;99.90
9537;DHT22;4807;48.024;11.726;2023-07-20T03:53:00;16.10;99.90
9537;DHT22;4807;48.024;11.726;2023-07-20T03:56:09;16.10;99.90
9537;DHT22;4807;48.024;11.726;2023-07-20T03:59:17;15.90;99.90
9537;DHT22;4807;48.024;11.726;2023-07-20T04:02:26;15.80;99.90
9537;DHT22;4807;48.024;11.726;2023-07-20T04:05:34;15.70;99.90
9537;DHT22;4807;48.024;11.726;2023-07-20T04:08:42;15.70;99.90
9537;DHT22;4807;48.024;11.726;2023-07-20T04:11:52;15.70;99.90
9537;DHT22;4807;48.024;11.726;2023-07-20T04:15:00;15.70;99.90
9537;DHT22;4807;48.024;11.726;2023-07-20T04:18:10;15.70;99.90
9537;DHT22;4807;48.024;11.726;2023-07-20T04:21:18;15.70;99.90
9537;DHT22;4807;48.024;11.726;2023-07-20T04:24:26;15.80;99.90
9537;DHT22;4807;48.024;11.726;2023-07-20T04:27:36;15.80;99.90
9537;DHT22;4807;48.024;11.726;2023-07-20T04:30:44;15.90;99.90
9537;DHT22;4807;48.024;11.726;2023-07-20T04:33:53;15.80;99.90
9537;DHT22;4807;48.024;11.726;2023-07-20T04:37:01;15.80;99.90
9537;DHT22;4807;48.024;11.726;2023-07-20T04:40:11;15.80;99.90
9537;DHT22;4807;48.024;11.726;2023-07-20T04:43:21;15.70;99.90
9537;DHT22;4807;48.024;11.726;2023-07-20T04:46:30;15.60;99.90
9537;DHT22;4807;48.024;11.726;2023-07-20T04:49:41;15.70;99.90
9537;DHT22;4807;48.024;11.726;2023-07-20T04:52:53;15.60;99.90
9537;DHT22;4807;48.024;11.726;2023-07-20T04:56:02;15.70;99.90
9537;DHT22;4807;48.024;11.726;2023-07-20T04:59:11;15.70;99.90
9537;DHT22;4807;48.024;11.726;2023-07-20T05:02:20;15.70;99.90
9537;DHT22;4807;48.024;11.726;2023-07-20T05:05:28;15.70;99.90
9537;DHT22;4807;48.024;11.726;2023-07-20T05:08:37;15.80;99.90
9537;DHT22;4807;48.024;11.726;2023-07-20T05:11:45;15.70;99.90
9537;DHT22;4807;48.024;11.726;2023-07-20T05:14:56;15.60;99.90
9537;DHT22;4807;48.024;11.726;2023-07-20T05:18:05;15.60;99.90
9537;DHT22;4807;48.024;11.726;2023-07-20T05:21:13;15.60;99.90
9537;DHT22;4807;48.024;11.726;2023-07-20T05:24:21;15.70;99.90
9537;DHT22;4807;48.024;11.726;2023-07-20T05:27:30;15.70;99.90
9537;DHT22;4807;48.024;11.726;2023-07-20T05:30:39;15.80;99.90
9537;DHT22;4807;48.024;11.726;2023-07-20T05:33:51;15.80;99.90
9537;DHT22;4807;48.024;11.726;2023-07-20T05:37:00;15.90;99.90
9537;DHT22;4807;48.024;11.726;2023-07-20T05:40:09;16.00;99.90
9537;DHT22;4807;48.024;11.726;2023-07-20T05:43:18;16.00;99.90
9537;DHT22;4807;48.024;11.726;2023-07-20T05:46:28;16.20;99.90
9537;DHT22;4807;48.024;11.726;2023-07-20T05:49:52;16.20;99.90
9537;DHT22;4807;48.024;11.726;2023-07-20T05:53:00;16.30;99.90
9537;DHT22;4807;48.024;11.726;2023-07-20T05:56:08;16.50;99.90
9537;DHT22;4807;48.024;11.726;2023-07-20T05:59:17;16.60;99.90
9537;DHT22;4807;48.024;11.726;2023-07-20T06:02:28;16.80;99.90
9537;DHT22;4807;48.024;11.726;2023-07-20T06:05:37;17.10;99.90
9537;DHT22;4807;48.024;11.726;2023-07-20T06:08:45;17.30;99.90
9537;DHT22;4807;48.024;11.726;2023-07-20T06:11:53;17.60;99.90
9537;DHT22;4807;48.024;11.726;2023-07-20T06:15:03;17.70;99.90
9537;DHT22;4807;48.024;11.726;2023-07-20T06:18:13;17.80;99.90
9537;DHT22;4807;48.024;11.726;2023-07-20T06:21:22;17.80;99.90
9537;DHT22;4807;48.024;11.726;2023-07-20T06:24:30;17.80;99.90
9537;DHT22;4807;48.024;11.726;2023-07-20T06:27:38;17.80;99.90
9537;DHT22;4807;48.024;11.726;2023-07-20T06:30:47;17.80;99.90
9537;DHT22;4807;48.024;11.726;2023-07-20T06:33:56;17.80;99.90
9537;DHT22;4807;48.024;11.726;2023-07-20T06:37:05;17.80;99.90
9537;DHT22;4807;48.024;11.726;2023-07-20T06:40:14;17.80;99.90
9537;DHT22;4807;48.024;11.726;2023-07-20T06:43:25;17.80;99.90
9537;DHT22;4807;48.024;11.726;2023-07-20T06:46:36;18.00;99.90
9537;DHT22;4807;48.024;11.726;2023-07-20T06:49:46;18.00;99.90
9537;DHT22;4807;48.024;11.726;2023-07-20T06:52:54;17.90;99.90
9537;DHT22;4807;48.024;11.726;2023-07-20T06:56:05;17.70;99.90
9537;DHT22;4807;48.024;11.726;2023-07-20T06:59:13;17.70;99.90
9537;DHT22;4807;48.024;11.726;2023-07-20T07:02:21;18.00;99.90
9537;DHT22;4807;48.024;11.726;2023-07-20T07:05:31;18.20;99.90
9537;DHT22;4807;48.024;11.726;2023-07-20T07:08:42;18.50;99.90
9537;DHT22;4807;48.024;11.726;2023-07-20T07:11:51;18.50;99.90
9537;DHT22;4807;48.024;11.726;2023-07-20T07:15:00;18.50;99.90
9537;DHT22;4807;48.024;11.726;2023-07-20T07:18:08;18.60;99.90
9537;DHT22;4807;48.024;11.726;2023-07-20T07:21:18;18.80;99.90
9537;DHT22;4807;48.024;11.726;2023-07-20T07:24:28;18.80;99.90
9537;DHT22;4807;48.024;11.726;2023-07-20T07:27:40;18.80;99.90
9537;DHT22;4807;48.024;11.726;2023-07-20T07:30:48;18.50;99.90
9537;DHT22;4807;48.024;11.726;2023-07-20T07:33:57;18.60;99.90
9537;DHT22;4807;48.024;11.726;2023-07-20T07:37:07;19.10;99.90
9537;DHT22;4807;48.024;11.726;2023-07-20T07:40:15;19.90;99.90
9537;DHT22;4807;48.024;11.726;2023-07-20T07:43:24;20.10;99.90
9537;DHT22;4807;48.024;11.726;2023-07-20T07:46:33;20.20;99.90
9537;DHT22;4807;48.024;11.726;2023-07-20T07:49:42;21.10;99.90
9537;DHT22;4807;48.024;11.726;2023-07-20T07:52:54;21.20;99.40
9537;DHT22;4807;48.024;11.726;2023-07-20T07:56:03;21.30;99.20
9537;DHT22;4807;48.024;11.726;2023-07-20T07:59:15;21.10;98.90
9537;DHT22;4807;48.024;11.726;2023-07-20T08:02:23;21.10;99.00
9537;DHT22;4807;48.024;11.726;2023-07-20T08:05:32;21.30;98.60
9537;DHT22;4807;48.024;11.726;2023-07-20T08:08:43;21.20;98.00
9537;DHT22;4807;48.024;11.726;2023-07-20T08:11:51;21.30;97.70
9537;DHT22;4807;48.024;11.726;2023-07-20T08:14:59;21.20;97.90
9537;DHT22;4807;48.024;11.726;2023-07-20T08:18:08;21.40;95.80
9537;DHT22;4807;48.024;11.726;2023-07-20T08:21:17;21.50;95.50
9537;DHT22;4807;48.024;11.726;2023-07-20T08:24:26;21.50;95.10
9537;DHT22;4807;48.024;11.726;2023-07-20T08:27:36;21.60;94.00
9537;DHT22;4807;48.024;11.726;2023-07-20T08:30:46;21.20;93.80
9537;DHT22;4807;48.024;11.726;2023-07-20T08:33:56;21.20;94.50
9537;DHT22;4807;48.024;11.726;2023-07-20T08:37:05;21.20;94.60
9537;DHT22;4807;48.024;11.726;2023-07-20T08:40:15;21.40;94.80
9537;DHT22;4807;48.024;11.726;2023-07-20T08:43:24;21.80;94.90
9537;DHT22;4807;48.024;11.726;2023-07-20T08:46:33;21.80;94.40
9537;DHT22;4807;48.024;11.726;2023-07-20T08:49:48;21.90;94.20
9537;DHT22;4807;48.024;11.726;2023-07-20T08:52:58;22.20;94.10
9537;DHT22;4807;48.024;11.726;2023-07-20T08:56:09;23.50;92.90
9537;DHT22;4807;48.024;11.726;2023-07-20T08:59:19;24.60;90.30
9537;DHT22;4807;48.024;11.726;2023-07-20T09:02:29;24.60;90.30
9537;DHT22;4807;48.024;11.726;2023-07-20T09:05:42;24.90;86.60
9537;DHT22;4807;48.024;11.726;2023-07-20T09:08:52;24.40;87.40
9537;DHT22;4807;48.024;11.726;2023-07-20T09:12:03;24.30;88.60
9537;DHT22;4807;48.024;11.726;2023-07-20T09:15:12;24.10;86.10
9537;DHT22;4807;48.024;11.726;2023-07-20T09:18:24;24.20;85.30
9537;DHT22;4807;48.024;11.726;2023-07-20T09:21:35;24.80;82.90
9537;DHT22;4807;48.024;11.726;2023-07-20T09:24:44;25.30;80.10
9537;DHT22;4807;48.024;11.726;2023-07-20T09:27:54;25.70;78.90
9537;DHT22;4807;48.024;11.726;2023-07-20T09:31:15;26.60;76.40
9537;DHT22;4807;48.024;11.726;2023-07-20T09:34:25;26.50;74.50
9537;DHT22;4807;48.024;11.726;2023-07-20T09:37:37;26.60;73.90
9537;DHT22;4807;48.024;11.726;2023-07-20T09:40:46;25.20;75.10
9537;DHT22;4807;48.024;11.726;2023-07-20T09:44:00;25.20;76.00
9537;DHT22;4807;48.024;11.726;2023-07-20T09:47:29;24.60;67.60
9537;DHT22;4807;48.024;11.726;2023-07-20T09:50:41;21.30;72.20
9537;DHT22;4807;48.024;11.726;2023-07-20T09:53:53;21.20;73.10
9537;DHT22;4807;48.024;11.726;2023-07-20T09:57:02;21.00;77.60
9537;DHT22;4807;48.024;11.726;2023-07-20T10:00:14;22.10;77.60
9537;DHT22;4807;48.024;11.726;2023-07-20T10:03:29;23.20;70.70
9537;DHT22;4807;48.024;11.726;2023-07-20T10:06:42;24.10;72.30
9537;DHT22;4807;48.024;11.726;2023-07-20T10:09:56;24.60;68.60
9537;DHT22;4807;48.024;11.726;2023-07-20T10:13:13;24.80;67.40
9537;DHT22;4807;48.024;11.726;2023-07-20T10:16:29;24.90;68.10
9537;DHT22;4807;48.024;11.726;2023-07-20T10:19:44;25.10;64.10
9537;DHT22;4807;48.024;11.726;2023-07-20T10:22:58;24.50;68.60
9537;DHT22;4807;48.024;11.726;2023-07-20T10:26:09;24.60;66.70
9537;DHT22;4807;48.024;11.726;2023-07-20T10:29:19;25.00;69.10
9537;DHT22;4807;48.024;11.726;2023-07-20T10:32:30;24.90;67.00
9537;DHT22;4807;48.024;11.726;2023-07-20T10:35:53;23.50;72.30
9537;DHT22;4807;48.024;11.726;2023-07-20T10:39:02;23.40;69.00
9537;DHT22;4807;48.024;11.726;2023-07-20T10:42:14;23.10;71.10
9537;DHT22;4807;48.024;11.726;2023-07-20T10:45:33;23.70;75.10
9537;DHT22;4807;48.024;11.726;2023-07-20T10:49:02;24.40;73.70
9537;DHT22;4807;48.024;11.726;2023-07-20T10:52:12;24.30;69.90
9537;DHT22;4807;48.024;11.726;2023-07-20T10:55:20;24.20;70.30
9537;DHT22;4807;48.024;11.726;2023-07-20T10:58:29;24.10;71.30
9537;DHT22;4807;48.024;11.726;2023-07-20T11:01:38;23.60;69.30
9537;DHT22;4807;48.024;11.726;2023-07-20T11:04:51;23.70;72.50
9537;DHT22;4807;48.024;11.726;2023-07-20T11:08:00;24.10;73.40
9537;DHT22;4807;48.024;11.726;2023-07-20T11:11:21;23.20;71.30
9537;DHT22;4807;48.024;11.726;2023-07-20T11:14:31;22.60;75.60
9537;DHT22;4807;48.024;11.726;2023-07-20T11:17:41;22.90;77.60
9537;DHT22;4807;48.024;11.726;2023-07-20T11:20:53;23.80;74.10
9537;DHT22;4807;48.024;11.726;2023-07-20T11:24:03;24.30;67.10
9537;DHT22;4807;48.024;11.726;2023-07-20T11:27:13;23.90;71.10
9537;DHT22;4807;48.024;11.726;2023-07-20T11:30:22;24.50;71.20
9537;DHT22;4807;48.024;11.726;2023-07-20T11:33:30;25.30;71.10
9537;DHT22;4807;48.024;11.726;2023-07-20T11:36:43;24.50;65.60
9537;DHT22;4807;48.024;11.726;2023-07-20T11:39:56;23.40;68.30
9537;DHT22;4807;48.024;11.726;2023-07-20T11:43:07;23.50;71.70
9537;DHT22;4807;48.024;11.726;2023-07-20T11:46:19;24.10;70.60
9537;DHT22;4807;48.024;11.726;2023-07-20T11:49:28;24.80;71.60
9537;DHT22;4807;48.024;11.726;2023-07-20T11:52:41;25.80;67.60
9537;DHT22;4807;48.024;11.726;2023-07-20T11:55:50;26.10;65.50
9537;DHT22;4807;48.024;11.726;2023-07-20T11:59:00;26.10;64.00
9537;DHT22;4807;48.024;11.726;2023-07-20T12:02:11;25.60;64.10
9537;DHT22;4807;48.024;11.726;2023-07-20T12:05:22;25.10;64.70
9537;DHT22;4807;48.024;11.726;2023-07-20T12:08:32;24.90;66.00
9537;DHT22;4807;48.024;11.726;2023-07-20T12:11:43;24.10;67.20
9537;DHT22;4807;48.024;11.726;2023-07-20T12:14:52;23.50;67.90
9537;DHT22;4807;48.024;11.726;2023-07-20T12:18:01;23.80;69.70
9537;DHT22;4807;48.024;11.726;2023-07-20T12:21:11;23.50;69.00
9537;DHT22;4807;48.024;11.726;2023-07-20T12:24:21;23.70;66.70
9537;DHT22;4807;48.024;11.726;2023-07-20T12:27:29;24.10;69.10
9537;DHT22;4807;48.024;11.726;2023-07-20T12:30:37;24.70;67.20
9537;DHT22;4807;48.024;11.726;2023-07-20T12:33:46;24.70;68.00
9537;DHT22;4807;48.024;11.726;2023-07-20T12:36:55;24.60;65.50
9537;DHT22;4807;48.024;11.726;2023-07-20T12:40:07;24.60;64.80
9537;DHT22;4807;48.024;11.726;2023-07-20T12:43:17;24.40;66.50
9537;DHT22;4807;48.024;11.726;2023-07-20T12:46:28;24.60;66.70
9537;DHT22;4807;48.024;11.726;2023-07-20T12:49:37;24.80;62.70
9537;DHT22;4807;48.024;11.726;2023-07-20T12:52:46;24.50;64.70
9537;DHT22;4807;48.024;11.726;2023-07-20T12:55:55;24.20;64.10
9537;DHT22;4807;48.024;11.726;2023-07-20T12:59:04;24.00;65.20
9537;DHT22;4807;48.024;11.726;2023-07-20T13:02:12;23.60;66.50
9537;DHT22;4807;48.024;11.726;2023-07-20T13:05:20;24.00;66.10
9537;DHT22;4807;48.024;11.726;2023-07-20T13:08:49;24.60;65.80
9537;DHT22;4807;48.024;11.726;2023-07-20T13:12:04;25.00;63.40
9537;DHT22;4807;48.024;11.726;2023-07-20T13:15:16;25.00;64.90
9537;DHT22;4807;48.024;11.726;2023-07-20T13:18:25;24.90;63.90
9537;DHT22;4807;48.024;11.726;2023-07-20T13:21:37;24.30;64.30
9537;DHT22;4807;48.024;11.726;2023-07-20T13:24:45;24.00;66.70
9537;DHT22;4807;48.024;11.726;2023-07-20T13:27:57;24.10;65.20
9537;DHT22;4807;48.024;11.726;2023-07-20T13:31:06;24.60;64.40
9537;DHT22;4807;48.024;11.726;2023-07-20T13:34:27;25.00;65.70
9537;DHT22;4807;48.024;11.726;2023-07-20T13:37:38;25.40;64.30
9537;DHT22;4807;48.024;11.726;2023-07-20T13:40:47;24.30;64.50
9537;DHT22;4807;48.024;11.726;2023-07-20T13:43:56;24.10;65.30
9537;DHT22;4807;48.024;11.726;2023-07-20T13:47:06;23.80;65.80
9537;DHT22;4807;48.024;11.726;2023-07-20T13:50:17;24.00;64.40
9537;DHT22;4807;48.024;11.726;2023-07-20T13:53:28;24.60;66.00
9537;DHT22;4807;48.024;11.726;2023-07-20T13:56:41;24.70;65.30
9537;DHT22;4807;48.024;11.726;2023-07-20T13:59:51;24.60;65.20
9537;DHT22;4807;48.024;11.726;2023-07-20T14:02:59;24.30;64.90
9537;DHT22;4807;48.024;11.726;2023-07-20T14:06:10;23.90;65.80
9537;DHT22;4807;48.024;11.726;2023-07-20T14:09:24;24.00;66.00
9537;DHT22;4807;48.024;11.726;2023-07-20T14:12:33;24.30;66.50
9537;DHT22;4807;48.024;11.726;2023-07-20T14:15:43;24.70;66.00
9537;DHT22;4807;48.024;11.726;2023-07-20T14:18:52;25.10;65.90
9537;DHT22;4807;48.024;11.726;2023-07-20T14:22:00;25.30;64.20
9537;DHT22;4807;48.024;11.726;2023-07-20T14:25:10;24.80;61.80
9537;DHT22;4807;48.024;11.726;2023-07-20T14:28:18;24.40;64.20
9537;DHT22;4807;48.024;11.726;2023-07-20T14:31:28;24.30;64.10
9537;DHT22;4807;48.024;11.726;2023-07-20T14:34:38;24.30;63.10
9537;DHT22;4807;48.024;11.726;2023-07-20T14:37:47;23.60;65.50
9537;DHT22;4807;48.024;11.726;2023-07-20T14:40:57;23.70;64.10
9537;DHT22;4807;48.024;11.726;2023-07-20T14:44:07;23.80;64.70
9537;DHT22;4807;48.024;11.726;2023-07-20T14:47:18;24.00;63.10
9537;DHT22;4807;48.024;11.726;2023-07-20T14:50:27;24.20;63.30
9537;DHT22;4807;48.024;11.726;2023-07-20T14:53:35;24.40;62.60
9537;DHT22;4807;48.024;11.726;2023-07-20T14:56:49;24.60;65.90
9537;DHT22;4807;48.024;11.726;2023-07-20T14:59:59;25.00;64.60
9537;DHT22;4807;48.024;11.726;2023-07-20T15:03:11;25.50;62.10
9537;DHT22;4807;48.024;11.726;2023-07-20T15:06:20;25.90;61.40
9537;DHT22;4807;48.024;11.726;2023-07-20T15:09:29;26.00;60.10
9537;DHT22;4807;48.024;11.726;2023-07-20T15:12:38;25.70;61.30
9537;DHT22;4807;48.024;11.726;2023-07-20T15:15:46;25.70;59.40
9537;DHT22;4807;48.024;11.726;2023-07-20T15:18:56;26.00;60.40
9537;DHT22;4807;48.024;11.726;2023-07-20T15:22:04;26.20;58.10
9537;DHT22;4807;48.024;11.726;2023-07-20T15:25:14;25.70;58.60
9537;DHT22;4807;48.024;11.726;2023-07-20T15:28:22;25.60;58.70
9537;DHT22;4807;48.024;11.726;2023-07-20T15:31:30;25.30;60.10
9537;DHT22;4807;48.024;11.726;2023-07-20T15:34:43;25.00;58.60
9537;DHT22;4807;48.024;11.726;2023-07-20T15:37:51;24.90;59.90
9537;DHT22;4807;48.024;11.726;2023-07-20T15:41:00;25.00;60.80
9537;DHT22;4807;48.024;11.726;2023-07-20T15:44:08;24.90;60.70
9537;DHT22;4807;48.024;11.726;2023-07-20T15:47:16;25.00;60.90
9537;DHT22;4807;48.024;11.726;2023-07-20T15:50:27;24.90;61.70
9537;DHT22;4807;48.024;11.726;2023-07-20T15:53:36;25.00;60.80
9537;DHT22;4807;48.024;11.726;2023-07-20T15:56:45;25.00;59.70
9537;DHT22;4807;48.024;11.726;2023-07-20T15:59:53;24.90;61.10
9537;DHT22;4807;48.024;11.726;2023-07-20T16:03:02;24.70;60.60
9537;DHT22;4807;48.024;11.726;2023-07-20T16:06:13;24.50;59.80
9537;DHT22;4807;48.024;11.726;2023-07-20T16:09:22;24.40;60.40
9537;DHT22;4807;48.024;11.726;2023-07-20T16:12:30;24.40;61.70
9537;DHT22;4807;48.024;11.726;2023-07-20T16:15:39;24.40;62.00
9537;DHT22;4807;48.024;11.726;2023-07-20T16:18:51;24.50;61.30
9537;DHT22;4807;48.024;11.726;2023-07-20T16:22:02;24.30;60.90
9537;DHT22;4807;48.024;11.726;2023-07-20T16:25:12;24.00;62.90
9537;DHT22;4807;48.024;11.726;2023-07-20T16:28:20;23.80;62.80
9537;DHT22;4807;48.024;11.726;2023-07-20T16:31:29;23.60;62.40
9537;DHT22;4807;48.024;11.726;2023-07-20T16:34:37;23.60;63.60
9537;DHT22;4807;48.024;11.726;2023-07-20T16:37:50;23.30;63.60
9537;DHT22;4807;48.024;11.726;2023-07-20T16:41:01;23.50;64.30
9537;DHT22;4807;48.024;11.726;2023-07-20T16:44:10;23.50;63.80
9537;DHT22;4807;48.024;11.726;2023-07-20T16:47:18;23.60;62.80
9537;DHT22;4807;48.024;11.726;2023-07-20T16:50:28;23.80;63.30
9537;DHT22;4807;48.024;11.726;2023-07-20T16:53:38;24.00;62.90
9537;DHT22;4807;48.024;11.726;2023-07-20T16:56:46;24.10;63.20
9537;DHT22;4807;48.024;11.726;2023-07-20T16:59:55;24.10;61.90
9537;DHT22;4807;48.024;11.726;2023-07-20T17:03:03;24.10;64.60
9537;DHT22;4807;48.024;11.726;2023-07-20T17:06:12;24.00;63.70
9537;DHT22;4807;48.024;11.726;2023-07-20T17:09:21;24.00;65.00
9537;DHT22;4807;48.024;11.726;2023-07-20T17:12:30;24.10;64.00
9537;DHT22;4807;48.024;11.726;2023-07-20T17:15:39;24.10;64.70
9537;DHT22;4807;48.024;11.726;2023-07-20T17:18:47;24.20;65.20
9537;DHT22;4807;48.024;11.726;2023-07-20T17:21:55;24.20;63.10
9537;DHT22;4807;48.024;11.726;2023-07-20T17:25:06;24.10;64.30
9537;DHT22;4807;48.024;11.726;2023-07-20T17:28:20;24.50;63.00
9537;DHT22;4807;48.024;11.726;2023-07-20T17:31:32;24.10;63.70
9537;DHT22;4807;48.024;11.726;2023-07-20T17:34:40;23.50;64.70
9537;DHT22;4807;48.024;11.726;2023-07-20T17:37:49;23.20;64.10
9537;DHT22;4807;48.024;11.726;2023-07-20T17:41:04;23.30;65.50
9537;DHT22;4807;48.024;11.726;2023-07-20T17:44:12;23.40;65.90
9537;DHT22;4807;48.024;11.726;2023-07-20T17:47:21;23.40;66.40
9537;DHT22;4807;48.024;11.726;2023-07-20T17:50:31;23.30;66.30
9537;DHT22;4807;48.024;11.726;2023-07-20T17:53:39;23.30;67.10
9537;DHT22;4807;48.024;11.726;2023-07-20T17:56:49;23.30;66.30
9537;DHT22;4807;48.024;11.726;2023-07-20T17:59:57;23.20;65.20
9537;DHT22;4807;48.024;11.726;2023-07-20T18:03:10;23.20;64.50
9537;DHT22;4807;48.024;11.726;2023-07-20T18:06:19;23.00;67.10
9537;DHT22;4807;48.024;11.726;2023-07-20T18:09:27;23.00;67.60
9537;DHT22;4807;48.024;11.726;2023-07-20T18:12:39;22.80;69.80
9537;DHT22;4807;48.024;11.726;2023-07-20T18:15:54;22.60;71.00
9537;DHT22;4807;48.024;11.726;2023-07-20T18:19:03;22.30;72.70
9537;DHT22;4807;48.024;11.726;2023-07-20T18:22:11;22.10;71.90
9537;DHT22;4807;48.024;11.726;2023-07-20T18:25:21;22.00;71.90
9537;DHT22;4807;48.024;11.726;2023-07-20T18:28:31;21.80;73.60
9537;DHT22;4807;48.024;11.726;2023-07-20T18:31:40;21.50;74.50
9537;DHT22;4807;48.024;11.726;2023-07-20T18:34:48;21.50;74.40
9537;DHT22;4807;48.024;11.726;2023-07-20T18:37:57;21.30;75.40
9537;DHT22;4807;48.024;11.726;2023-07-20T18:41:07;21.10;75.10
9537;DHT22;4807;48.024;11.726;2023-07-20T18:44:17;21.00;76.00
9537;DHT22;4807;48.024;11.726;2023-07-20T18:47:26;20.90;77.20
9537;DHT22;4807;48.024;11.726;2023-07-20T18:50:34;20.60;76.90
9537;DHT22;4807;48.024;11.726;2023-07-20T18:53:43;20.60;77.60
9537;DHT22;4807;48.024;11.726;2023-07-20T18:56:51;20.50;78.80
9537;DHT22;4807;48.024;11.726;2023-07-20T19:00:01;20.40;80.60
9537;DHT22;4807;48.024;11.726;2023-07-20T19:03:11;20.30;82.60
9537;DHT22;4807;48.024;11.726;2023-07-20T19:06:20;20.10;83.60
9537;DHT22;4807;48.024;11.726;2023-07-20T19:09:28;19.90;85.10
9537;DHT22;4807;48.024;11.726;2023-07-20T19:12:37;19.70;86.30
9537;DHT22;4807;48.024;11.726;2023-07-20T19:15:50;19.60;87.40
9537;DHT22;4807;48.024;11.726;2023-07-20T19:19:04;19.50;88.40
9537;DHT22;4807;48.024;11.726;2023-07-20T19:22:13;19.40;88.60
9537;DHT22;4807;48.024;11.726;2023-07-20T19:25:23;19.30;89.40
9537;DHT22;4807;48.024;11.726;2023-07-20T19:28:32;19.20;90.20
9537;DHT22;4807;48.024;11.726;2023-07-20T19:31:45;19.20;90.10
9537;DHT22;4807;48.024;11.726;2023-07-20T19:34:57;19.10;90.50
9537;DHT22;4807;48.024;11.726;2023-07-20T19:38:06;19.10;90.90
9537;DHT22;4807;48.024;11.726;2023-07-20T19:41:15;18.90;91.10
9537;DHT22;4807;48.024;11.726;2023-07-20T19:44:23;18.80;91.40
9537;DHT22;4807;48.024;11.726;2023-07-20T19:47:35;18.70;91.60
9537;DHT22;4807;48.024;11.726;2023-07-20T19:50:44;18.60;91.80
9537;DHT22;4807;48.024;11.726;2023-07-20T19:53:54;18.50;92.10
9537;DHT22;4807;48.024;11.726;2023-07-20T19:57:07;18.40;92.40
9537;DHT22;4807;48.024;11.726;2023-07-20T20:00:19;18.40;92.80
9537;DHT22;4807;48.024;11.726;2023-07-20T20:03:52;18.30;93.00
9537;DHT22;4807;48.024;11.726;2023-07-20T20:07:22;18.20;93.60
9537;DHT22;4807;48.024;11.726;2023-07-20T20:10:31;18.00;94.00
9537;DHT22;4807;48.024;11.726;2023-07-20T20:14:00;17.90;94.20
9537;DHT22;4807;48.024;11.726;2023-07-20T20:17:09;17.90;94.60
9537;DHT22;4807;48.024;11.726;2023-07-20T20:20:19;17.70;95.00